Time;durP1;ratioP1;P1;durP2;ratioP2;P2;SDS_P1;SDS_P2;PMS_P1;PMS_P2;Temp;Humidity;BMP_temperature;BMP_pressure;BME280_temperature;BME280_humidity;BME280_pressure;Samples;Min_cycle;Max_cycle;Signal;HPM_P1;HPM_P2
2021/01/08 00:00:07;;;;;;;26.60;11.55;;;6.80;85.90;;;;;;5013398;28;20034;-54
2021/01/08 00:02:33;;;;;;;29.30;10.82;;;6.80;85.90;;;;;;5019686;28;20060;-54
2021/01/08 00:04:58;;;;;;;28.67;11.02;;;6.80;85.90;;;;;;5032948;28;20049;-54
2021/01/08 00:07:24;;;;;;;27.95;10.57;;;6.80;85.90;;;;;;5031711;28;20432;-54
2021/01/08 00:09:50;;;;;;;21.00;9.30;;;6.80;85.90;;;;;;5033121;28;20022;-54
2021/01/08 00:12:15;;;;;;;26.85;11.80;;;6.80;85.90;;;;;;5032157;28;20041;-53
2021/01/08 00:14:41;;;;;;;21.80;9.43;;;6.80;85.90;;;;;;5033587;28;20022;-54
2021/01/08 00:17:07;;;;;;;31.77;11.30;;;6.80;85.90;;;;;;5019164;28;20440;-54
2021/01/08 00:19:32;;;;;;;27.38;10.35;;;6.80;86.00;;;;;;5017164;28;20058;-53
2021/01/08 00:21:58;;;;;;;27.70;11.57;;;6.70;85.90;;;;;;5017431;28;20041;-53
2021/01/08 00:24:24;;;;;;;23.45;10.60;;;6.70;85.90;;;;;;5030532;28;20362;-54
2021/01/08 00:26:50;;;;;;;30.35;11.13;;;6.80;86.00;;;;;;5033876;28;20051;-54
2021/01/08 00:29:16;;;;;;;24.95;11.23;;;6.80;86.00;;;;;;5036462;28;20478;-53
2021/01/08 00:31:46;;;;;;;24.73;11.10;;;6.70;86.00;;;;;;5036997;28;20061;-54
2021/01/08 00:34:17;;;;;;;24.05;10.65;;;6.80;86.00;;;;;;5036068;28;20344;-54
2021/01/08 00:36:50;;;;;;;29.40;10.80;;;6.70;85.90;;;;;;5034052;28;20041;-54
2021/01/08 00:39:17;;;;;;;25.15;10.48;;;6.70;86.00;;;;;;5035963;28;20052;-54
2021/01/08 00:41:42;;;;;;;22.45;10.00;;;6.70;86.00;;;;;;5036853;28;20032;-54
2021/01/08 00:44:08;;;;;;;21.98;9.90;;;6.80;86.80;;;;;;5035790;28;20109;-54
2021/01/08 00:46:39;;;;;;;23.27;8.95;;;6.70;86.00;;;;;;5033840;28;20038;-54
2021/01/08 00:49:06;;;;;;;21.48;9.15;;;6.70;86.00;;;;;;5036241;28;20033;-53
2021/01/08 00:51:36;;;;;;;20.40;8.82;;;6.70;86.00;;;;;;5036745;28;20060;-54
2021/01/08 00:54:03;;;;;;;15.33;7.53;;;6.70;86.00;;;;;;5036245;28;20043;-53
2021/01/08 00:56:29;;;;;;;28.88;10.32;;;6.70;86.00;;;;;;5033126;28;20256;-54
2021/01/08 00:58:55;;;;;;;27.35;9.45;;;6.70;86.00;;;;;;5036128;28;20128;-54
2021/01/08 01:01:21;;;;;;;29.48;11.63;;;6.70;86.00;;;;;;5036330;28;20099;-54
2021/01/08 01:03:47;;;;;;;26.50;9.65;;;6.70;86.00;;;;;;5036401;28;20104;-53
2021/01/08 01:06:20;;;;;;;27.08;10.45;;;6.70;86.10;;;;;;5024507;28;20152;-53
2021/01/08 01:08:46;;;;;;;25.33;10.23;;;6.70;86.00;;;;;;5015930;28;20029;-53
2021/01/08 01:11:17;;;;;;;27.17;10.32;;;6.70;86.00;;;;;;5016246;28;20022;-53
2021/01/08 01:13:44;;;;;;;22.00;9.85;;;6.70;86.00;;;;;;5016393;28;20104;-54
2021/01/08 01:16:11;;;;;;;23.08;10.50;;;6.70;86.00;;;;;;5023560;28;20451;-54
2021/01/08 01:18:36;;;;;;;24.70;9.38;;;6.70;86.00;;;;;;5035930;28;20082;-53
2021/01/08 01:21:02;;;;;;;21.42;9.63;;;6.70;86.00;;;;;;5036222;28;20037;-54
2021/01/08 01:23:28;;;;;;;23.27;9.85;;;6.70;86.00;;;;;;5035851;28;20025;-54
2021/01/08 01:25:53;;;;;;;20.70;10.43;;;6.70;86.00;;;;;;5032163;28;20044;-54
2021/01/08 01:28:19;;;;;;;26.00;10.65;;;6.70;86.00;;;;;;5034246;28;20041;-54
2021/01/08 01:30:45;;;;;;;22.58;9.52;;;6.70;86.00;;;;;;5035808;28;20030;-54
2021/01/08 01:33:10;;;;;;;22.80;9.65;;;6.70;86.00;;;;;;5035776;28;20041;-54
2021/01/08 01:35:36;;;;;;;26.00;9.27;;;6.70;86.00;;;;;;5033069;28;20025;-53
2021/01/08 01:38:02;;;;;;;23.20;9.15;;;6.60;86.00;;;;;;5034826;28;20365;-54
2021/01/08 01:40:28;;;;;;;26.05;9.77;;;6.70;86.00;;;;;;5035302;28;20017;-54
2021/01/08 01:42:54;;;;;;;32.20;10.07;;;6.60;85.90;;;;;;5035405;28;20459;-54
2021/01/08 01:45:19;;;;;;;27.17;9.60;;;6.60;86.00;;;;;;5032835;28;20069;-54
2021/01/08 01:47:45;;;;;;;24.10;9.82;;;6.70;86.00;;;;;;5034251;28;20034;-53
2021/01/08 01:50:11;;;;;;;25.50;10.10;;;6.70;86.00;;;;;;5035466;28;20044;-54
2021/01/08 01:52:37;;;;;;;28.70;8.80;;;6.70;86.00;;;;;;5035303;28;20079;-54
2021/01/08 01:55:07;;;;;;;21.52;8.25;;;6.60;86.00;;;;;;5034224;28;20474;-54
2021/01/08 01:57:33;;;;;;;21.00;8.15;;;6.70;86.00;;;;;;5033287;28;21345;-54
2021/01/08 01:59:59;;;;;;;24.30;8.82;;;6.60;86.00;;;;;;5034159;28;20032;-54
2021/01/08 02:02:46;;;;;;;21.25;9.52;;;6.70;86.00;;;;;;5046688;28;20013;-54
2021/01/08 02:05:16;;;;;;;23.33;9.40;;;6.70;86.00;;;;;;5049809;28;20091;-53
2021/01/08 02:08:08;;;;;;;21.30;8.38;;;6.70;86.00;;;;;;5015115;28;20064;-53
2021/01/08 02:10:43;;;;;;;22.98;9.25;;;6.70;86.00;;;;;;5015716;28;20363;-53
2021/01/08 02:13:16;;;;;;;20.00;8.43;;;6.60;85.90;;;;;;5015301;28;20026;-54
2021/01/08 02:15:42;;;;;;;22.30;9.55;;;6.70;85.90;;;;;;5020616;28;20033;-54
2021/01/08 02:18:08;;;;;;;23.42;10.48;;;6.60;85.90;;;;;;5034603;28;20036;-53
2021/01/08 02:20:34;;;;;;;25.85;9.68;;;6.60;85.90;;;;;;5033823;28;20041;-54
2021/01/08 02:23:11;;;;;;;21.65;10.27;;;6.70;86.00;;;;;;5034922;28;20501;-54
2021/01/08 02:25:38;;;;;;;26.88;9.68;;;6.60;85.90;;;;;;5033090;28;20064;-54
2021/01/08 02:28:20;;;;;;;24.95;10.20;;;6.60;85.90;;;;;;5034655;28;20025;-53
2021/01/08 02:30:47;;;;;;;23.13;9.27;;;6.60;85.90;;;;;;5033234;28;20053;-54
2021/01/08 02:33:14;;;;;;;23.52;9.60;;;6.70;86.00;;;;;;5034928;28;20033;-53
2021/01/08 02:35:40;;;;;;;24.33;9.07;;;6.70;85.90;;;;;;5021916;28;20477;-54
2021/01/08 02:38:07;;;;;;;21.52;8.90;;;6.70;85.90;;;;;;5034005;28;20033;-54
2021/01/08 02:40:34;;;;;;;28.05;10.90;;;6.60;85.90;;;;;;5033372;28;20032;-54
2021/01/08 02:43:04;;;;;;;19.98;8.68;;;6.60;85.80;;;;;;5020289;28;20034;-53
2021/01/08 02:45:31;;;;;;;23.05;10.23;;;6.60;85.80;;;;;;5012892;28;20022;-53
2021/01/08 02:47:58;;;;;;;24.40;10.15;;;6.60;85.90;;;;;;5013407;28;20447;-53
2021/01/08 02:50:25;;;;;;;27.95;10.13;;;6.60;85.90;;;;;;5014125;28;20025;-54
2021/01/08 02:52:59;;;;;;;24.25;9.73;;;6.60;85.90;;;;;;5014690;28;20087;-54
2021/01/08 02:55:30;;;;;;;21.67;8.90;;;6.70;86.00;;;;;;5014457;28;20030;-53
2021/01/08 02:57:59;;;;;;;17.05;7.72;;;6.70;85.90;;;;;;5014356;28;20033;-54
2021/01/08 03:00:35;;;;;;;21.13;8.00;;;6.70;85.90;;;;;;5014985;28;20018;-54
2021/01/08 03:03:01;;;;;;;20.27;8.40;;;6.70;85.90;;;;;;5034155;28;20044;-54
2021/01/08 03:05:29;;;;;;;16.52;7.40;;;6.60;85.80;;;;;;5033805;28;20382;-54
2021/01/08 03:07:56;;;;;;;20.23;8.63;;;6.60;85.80;;;;;;5033467;28;20021;-54
2021/01/08 03:10:25;;;;;;;19.92;9.25;;;6.60;85.80;;;;;;5033767;28;20442;-54
2021/01/08 03:13:12;;;;;;;20.92;8.50;;;6.70;85.80;;;;;;5034098;28;20032;-53
2021/01/08 03:15:37;;;;;;;15.70;7.75;;;6.60;85.80;;;;;;5033628;28;20399;-54
2021/01/08 03:18:03;;;;;;;16.33;7.13;;;6.60;85.80;;;;;;5033631;28;20167;-54
2021/01/08 03:20:29;;;;;;;20.00;8.75;;;6.70;85.80;;;;;;5033866;28;20104;-53
2021/01/08 03:22:54;;;;;;;20.50;8.18;;;6.60;85.80;;;;;;5029736;28;20022;-54
2021/01/08 03:25:20;;;;;;;16.50;7.03;;;6.70;85.80;;;;;;5016920;28;20029;-54
2021/01/08 03:27:46;;;;;;;16.05;7.57;;;6.60;85.80;;;;;;5016698;28;20364;-54
2021/01/08 03:30:12;;;;;;;13.90;7.30;;;6.70;85.80;;;;;;5013806;28;20149;-54
2021/01/08 03:32:38;;;;;;;21.92;8.38;;;6.70;85.90;;;;;;5013637;28;20109;-53
2021/01/08 03:35:06;;;;;;;20.42;9.07;;;6.70;85.80;;;;;;5013835;28;20117;-54
2021/01/08 03:37:31;;;;;;;22.40;7.97;;;6.70;85.80;;;;;;5013484;28;20359;-54
2021/01/08 03:39:57;;;;;;;18.15;8.40;;;6.70;85.80;;;;;;5013641;28;20113;-54
2021/01/08 03:42:23;;;;;;;15.43;6.95;;;6.60;85.70;;;;;;5013438;28;20061;-54
2021/01/08 03:44:48;;;;;;;24.83;7.90;;;6.60;85.80;;;;;;5016778;28;20431;-54
2021/01/08 03:47:14;;;;;;;19.65;8.15;;;6.60;85.80;;;;;;5033519;28;20033;-54
2021/01/08 03:49:40;;;;;;;15.43;7.20;;;6.60;85.70;;;;;;5032490;28;20448;-54
2021/01/08 03:52:06;;;;;;;14.88;6.75;;;6.60;85.70;;;;;;5016063;28;20080;-54
2021/01/08 03:54:33;;;;;;;21.35;7.63;;;6.60;85.70;;;;;;5013434;28;20076;-54
2021/01/08 03:56:58;;;;;;;14.38;6.70;;;6.60;85.70;;;;;;5013267;28;20506;-53
2021/01/08 03:59:24;;;;;;;17.70;6.63;;;6.60;85.60;;;;;;5013403;28;20026;-54
2021/01/08 04:01:50;;;;;;;14.60;6.95;;;6.60;85.70;;;;;;5013592;28;20026;-53
2021/01/08 04:04:16;;;;;;;18.90;7.65;;;6.60;85.60;;;;;;5013629;28;20044;-53
2021/01/08 04:06:41;;;;;;;18.40;7.25;;;6.60;85.70;;;;;;5030284;28;20487;-54
2021/01/08 04:09:07;;;;;;;21.63;7.93;;;6.60;85.60;;;;;;5032686;28;20022;-54
2021/01/08 04:11:33;;;;;;;20.50;8.63;;;6.60;85.60;;;;;;5032964;28;20036;-54
2021/01/08 04:13:59;;;;;;;18.83;7.43;;;6.60;85.60;;;;;;5033293;28;20022;-54
2021/01/08 04:16:34;;;;;;;14.60;6.40;;;6.60;85.70;;;;;;5032891;28;20037;-53
2021/01/08 04:19:00;;;;;;;19.00;8.00;;;6.70;85.70;;;;;;5032853;28;20443;-54
2021/01/08 04:21:26;;;;;;;20.23;7.93;;;6.60;85.60;;;;;;5032757;28;20025;-54
2021/01/08 04:23:52;;;;;;;15.05;5.82;;;6.60;85.60;;;;;;5032947;28;20111;-53
2021/01/08 04:26:17;;;;;;;19.02;7.78;;;6.60;85.70;;;;;;5032920;28;20521;-54
2021/01/08 04:28:43;;;;;;;13.90;6.93;;;6.60;85.70;;;;;;5032957;28;20025;-53
2021/01/08 04:31:09;;;;;;;17.80;7.05;;;6.60;85.60;;;;;;5033083;28;20053;-54
2021/01/08 04:33:35;;;;;;;15.95;7.30;;;6.60;85.60;;;;;;5033452;28;20017;-54
2021/01/08 04:36:00;;;;;;;17.92;7.25;;;6.60;85.60;;;;;;5032920;28;20033;-54
2021/01/08 04:38:26;;;;;;;13.48;6.57;;;6.70;85.70;;;;;;5032313;28;20030;-53
2021/01/08 04:40:52;;;;;;;12.10;6.05;;;6.60;85.60;;;;;;5032971;28;20099;-53
2021/01/08 04:43:18;;;;;;;18.00;7.70;;;6.60;85.60;;;;;;5032985;28;20105;-54
2021/01/08 04:45:44;;;;;;;20.45;7.13;;;6.60;85.60;;;;;;5032880;28;20025;-54
2021/01/08 04:48:13;;;;;;;23.17;7.13;;;6.60;85.60;;;;;;5032611;28;20113;-54
2021/01/08 04:50:41;;;;;;;14.23;6.68;;;6.60;86.30;;;;;;5032925;28;20112;-54
2021/01/08 04:53:09;;;;;;;16.88;6.13;;;6.60;85.60;;;;;;5032456;28;20366;-54
2021/01/08 04:55:35;;;;;;;14.75;6.70;;;6.60;85.50;;;;;;5032877;28;20024;-54
2021/01/08 04:58:02;;;;;;;19.10;8.80;;;6.60;85.50;;;;;;5032499;28;20113;-54
2021/01/08 05:00:27;;;;;;;16.80;7.07;;;6.60;85.50;;;;;;5032699;28;20081;-54
2021/01/08 05:02:54;;;;;;;13.93;6.15;;;6.60;85.50;;;;;;5036104;28;20029;-54
2021/01/08 05:05:22;;;;;;;16.67;6.88;;;6.60;85.40;;;;;;5036289;28;20060;-54
2021/01/08 05:07:48;;;;;;;18.58;6.68;;;6.60;85.50;;;;;;5036178;28;20416;-54
2021/01/08 05:10:13;;;;;;;15.20;6.72;;;6.60;85.40;;;;;;5036406;28;20057;-54
2021/01/08 05:12:44;;;;;;;14.10;6.88;;;6.60;85.40;;;;;;5036392;28;20025;-54
2021/01/08 05:15:14;;;;;;;14.73;6.65;;;6.60;85.40;;;;;;5036287;28;20329;-54
2021/01/08 05:17:41;;;;;;;14.30;6.65;;;6.60;86.20;;;;;;5036170;28;20461;-54
2021/01/08 05:20:07;;;;;;;16.80;7.20;;;6.60;85.40;;;;;;5035653;28;20032;-54
2021/01/08 05:22:33;;;;;;;15.27;6.57;;;6.60;85.40;;;;;;5035962;28;20116;-55
2021/01/08 05:25:10;;;;;;;15.35;7.18;;;6.60;85.40;;;;;;5036108;28;20096;-54
2021/01/08 05:27:37;;;;;;;16.63;7.53;;;6.60;85.40;;;;;;5035880;28;20112;-54
2021/01/08 05:30:20;;;;;;;13.05;7.00;;;6.60;85.30;;;;;;5035693;28;20477;-54
2021/01/08 05:32:54;;;;;;;14.70;6.13;;;6.70;85.40;;;;;;5025539;28;20112;-54
2021/01/08 05:35:22;;;;;;;15.30;6.93;;;6.60;85.30;;;;;;5019960;28;20034;-54
2021/01/08 05:37:51;;;;;;;15.20;6.75;;;6.60;85.30;;;;;;5015677;28;20459;-54
2021/01/08 05:40:24;;;;;;;19.85;7.60;;;6.60;85.30;;;;;;5018520;28;20029;-54
2021/01/08 05:42:54;;;;;;;16.10;6.85;;;6.60;85.30;;;;;;5016722;28;20034;-54
2021/01/08 05:45:20;;;;;;;18.00;7.60;;;6.60;85.30;;;;;;5016140;28;20022;-54
2021/01/08 05:47:46;;;;;;;14.07;5.88;;;6.60;85.30;;;;;;5017956;28;20454;-54
2021/01/08 05:50:14;;;;;;;16.88;7.40;;;6.60;85.30;;;;;;5033656;28;20038;-54
2021/01/08 05:52:42;;;;;;;14.80;6.28;;;6.60;85.30;;;;;;5021709;28;20477;-54
2021/01/08 05:55:12;;;;;;;14.68;5.95;;;6.60;85.30;;;;;;5033938;28;20033;-54
2021/01/08 05:57:37;;;;;;;16.67;6.78;;;6.60;85.40;;;;;;5015199;28;20471;-54
2021/01/08 06:00:05;;;;;;;17.15;7.20;;;6.60;85.30;;;;;;5019406;28;20034;-54
2021/01/08 06:02:32;;;;;;;13.32;5.93;;;6.60;85.30;;;;;;5033636;28;20037;-54
2021/01/08 06:04:59;;;;;;;15.02;6.82;;;6.60;85.30;;;;;;5032903;28;20018;-54
2021/01/08 06:07:28;;;;;;;14.15;6.53;;;6.60;85.30;;;;;;5024199;28;20444;-54
2021/01/08 06:09:59;;;;;;;17.98;5.90;;;6.60;85.30;;;;;;5028950;28;20394;-54
2021/01/08 06:12:25;;;;;;;13.23;6.47;;;6.60;85.20;;;;;;5014694;28;20026;-54
2021/01/08 06:14:51;;;;;;;16.52;6.72;;;6.60;85.30;;;;;;5015354;28;20034;-54
2021/01/08 06:17:18;;;;;;;14.48;7.15;;;6.60;85.20;;;;;;5015247;28;20104;-54
2021/01/08 06:19:45;;;;;;;11.80;5.82;;;6.60;85.30;;;;;;5014898;28;20033;-54
2021/01/08 06:22:11;;;;;;;13.63;5.57;;;6.60;85.20;;;;;;5015018;28;20029;-54
2021/01/08 06:24:37;;;;;;;12.00;5.45;;;6.60;85.20;;;;;;5014901;28;20168;-54
2021/01/08 06:27:03;;;;;;;12.93;6.63;;;6.60;85.20;;;;;;5015220;28;20141;-54
2021/01/08 06:29:33;;;;;;;16.73;6.97;;;6.60;85.20;;;;;;5014689;28;20469;-54
2021/01/08 06:32:09;;;;;;;14.50;6.15;;;6.60;85.20;;;;;;5015193;28;20040;-54
2021/01/08 06:34:45;;;;;;;19.05;6.85;;;6.60;85.20;;;;;;5014960;28;20063;-53
2021/01/08 06:37:14;;;;;;;17.38;6.25;;;6.60;85.20;;;;;;5014587;28;20038;-54
2021/01/08 06:39:42;;;;;;;14.98;7.25;;;6.60;85.10;;;;;;5014763;28;20037;-54
2021/01/08 06:42:09;;;;;;;16.13;7.35;;;6.60;85.00;;;;;;5015087;28;20423;-54
2021/01/08 06:44:35;;;;;;;15.93;6.25;;;6.70;85.00;;;;;;5014848;28;20029;-54
2021/01/08 06:47:02;;;;;;;18.70;7.10;;;6.70;85.10;;;;;;5017272;28;20034;-54
2021/01/08 06:49:33;;;;;;;15.20;6.90;;;6.60;85.10;;;;;;5028913;28;20533;-54
2021/01/08 06:52:03;;;;;;;12.88;6.65;;;6.70;85.10;;;;;;5030123;28;20037;-54
2021/01/08 06:54:29;;;;;;;;;;;6.70;85.10;;;;;;5034589;28;20417;-53
2021/01/08 06:57:01;;;;;;;16.83;6.30;;;6.60;85.00;;;;;;5030151;28;19988;-54
2021/01/08 06:59:30;;;;;;;14.00;6.25;;;6.70;85.00;;;;;;5034005;28;20026;-54
2021/01/08 07:02:14;;;;;;;14.30;6.05;;;6.60;85.00;;;;;;5034102;28;20084;-54
2021/01/08 07:04:40;;;;;;;16.65;6.85;;;6.60;85.00;;;;;;5029220;28;20025;-53
2021/01/08 07:07:12;;;;;;;15.52;5.70;;;6.70;85.00;;;;;;5014128;28;20061;-54
2021/01/08 07:09:39;;;;;;;14.18;5.65;;;6.70;85.00;;;;;;5014157;28;20029;-54
2021/01/08 07:12:07;;;;;;;12.27;5.75;;;6.70;85.00;;;;;;5014371;28;20029;-54
2021/01/08 07:14:35;;;;;;;12.45;5.82;;;6.70;84.90;;;;;;5014155;28;20068;-54
2021/01/08 07:17:05;;;;;;;13.65;5.80;;;6.60;85.60;;;;;;5013952;28;20030;-54
2021/01/08 07:19:31;;;;;;;14.52;6.18;;;6.60;84.80;;;;;;5013841;28;20022;-54
2021/01/08 07:22:00;;;;;;;13.80;6.35;;;6.70;84.90;;;;;;5029165;28;20129;-54
2021/01/08 07:24:31;;;;;;;13.95;6.05;;;6.70;84.90;;;;;;5024348;28;20036;-54
2021/01/08 07:27:18;;;;;;;9.52;5.30;;;6.70;84.90;;;;;;5024448;28;20042;-54
2021/01/08 07:30:05;;;;;;;13.05;5.32;;;6.70;84.80;;;;;;5024314;28;20108;-54
2021/01/08 07:32:37;;;;;;;14.70;5.80;;;6.60;84.70;;;;;;5021613;28;20471;-54
2021/01/08 07:35:24;;;;;;;12.18;5.75;;;6.70;84.80;;;;;;5013807;28;20053;-54
2021/01/08 07:37:56;;;;;;;15.63;5.85;;;6.70;84.80;;;;;;5013478;28;20037;-54
2021/01/08 07:40:22;;;;;;;11.07;4.32;;;6.60;84.70;;;;;;5013508;28;20037;-54
2021/01/08 07:43:00;;;;;;;13.25;5.78;;;6.60;84.70;;;;;;5013976;28;20068;-54
2021/01/08 07:45:43;;;;;;;11.60;6.07;;;6.70;84.70;;;;;;5013626;28;20026;-54
2021/01/08 07:48:30;;;;;;;17.85;5.80;;;6.70;84.80;;;;;;5015600;28;20316;-54
2021/01/08 07:51:07;;;;;;;14.25;5.40;;;6.70;84.80;;;;;;5032592;28;20027;-53
2021/01/08 07:53:42;;;;;;;16.92;6.82;;;6.70;84.80;;;;;;5033330;28;20546;-54
2021/01/08 07:56:17;;;;;;;16.92;6.72;;;6.70;84.70;;;;;;5028739;28;20044;-53
2021/01/08 07:58:45;;;;;;;12.35;5.22;;;6.70;84.70;;;;;;5013434;28;20490;-54
2021/01/08 08:01:12;;;;;;;15.48;6.35;;;6.70;84.70;;;;;;5020540;28;20083;-54
2021/01/08 08:03:40;;;;;;;11.50;5.20;;;6.70;84.70;;;;;;5026026;28;20452;-54
2021/01/08 08:06:07;;;;;;;17.60;6.75;;;6.70;84.70;;;;;;5022264;28;20187;-53
2021/01/08 08:08:33;;;;;;;14.13;6.40;;;6.70;84.60;;;;;;5016308;28;20041;-54
2021/01/08 08:11:13;;;;;;;14.63;5.47;;;6.70;84.60;;;;;;5027933;28;20029;-54
2021/01/08 08:13:39;;;;;;;13.05;5.88;;;6.70;84.60;;;;;;5018703;28;20516;-54
2021/01/08 08:16:05;;;;;;;20.40;8.23;;;6.70;84.50;;;;;;5020172;28;20063;-54
2021/01/08 08:18:32;;;;;;;17.85;6.90;;;6.70;84.40;;;;;;5021754;28;20359;-54
2021/01/08 08:21:10;;;;;;;16.92;6.00;;;6.70;84.50;;;;;;5023253;28;20032;-54
2021/01/08 08:23:36;;;;;;;12.15;5.38;;;6.70;84.50;;;;;;5022886;28;20022;-54
2021/01/08 08:26:02;;;;;;;18.58;7.18;;;6.70;84.40;;;;;;5023286;28;20046;-54
2021/01/08 08:28:28;;;;;;;18.38;7.03;;;6.70;84.40;;;;;;5022921;28;20034;-54
2021/01/08 08:30:54;;;;;;;16.83;6.82;;;6.70;84.40;;;;;;5023204;28;20061;-54
2021/01/08 08:33:23;;;;;;;16.85;6.55;;;6.80;84.40;;;;;;5021966;28;20022;-54
2021/01/08 08:35:52;;;;;;;14.38;5.97;;;6.70;84.30;;;;;;5023698;28;20080;-54
2021/01/08 08:38:18;;;;;;;15.38;6.68;;;6.80;84.30;;;;;;5026814;28;20045;-54
2021/01/08 08:40:44;;;;;;;20.80;7.32;;;6.80;84.30;;;;;;5024162;28;20171;-54
2021/01/08 08:43:19;;;;;;;12.32;5.85;;;6.80;84.30;;;;;;5022788;28;20398;-54
2021/01/08 08:45:45;;;;;;;22.45;7.93;;;6.80;84.40;;;;;;5026488;28;20060;-54
2021/01/08 08:48:10;;;;;;;21.92;7.32;;;6.80;84.30;;;;;;5026026;28;20053;-54
2021/01/08 08:50:43;;;;;;;14.15;4.35;;;6.80;84.20;;;;;;5026228;28;20049;-54
2021/01/08 08:53:13;;;;;;;11.07;5.07;;;6.80;84.20;;;;;;5026720;28;20029;-54
2021/01/08 08:55:39;;;;;;;24.02;7.03;;;6.80;84.10;;;;;;5024329;28;20363;-54
2021/01/08 08:58:10;;;;;;;20.42;7.38;;;6.80;84.20;;;;;;5024075;28;20308;-54
2021/01/08 09:00:36;;;;;;;;;;;6.80;84.10;;;;;;5026180;28;20061;-54
2021/01/08 09:03:23;;;;;;;16.63;6.45;;;6.80;84.00;;;;;;5036102;28;20238;-54
2021/01/08 09:05:51;;;;;;;15.48;5.88;;;6.90;84.00;;;;;;5035335;28;20456;-54
2021/01/08 09:08:22;;;;;;;13.68;6.45;;;6.90;84.00;;;;;;5035515;28;20068;-54
2021/01/08 09:10:51;;;;;;;22.95;7.60;;;6.90;84.00;;;;;;5026219;28;20033;-54
2021/01/08 09:13:37;;;;;;;19.48;7.68;;;6.90;84.00;;;;;;5035825;28;20032;-54
2021/01/08 09:16:19;;;;;;;13.00;6.10;;;6.90;83.90;;;;;;5035609;28;20040;-54
2021/01/08 09:19:04;;;;;;;17.15;7.38;;;7.00;84.00;;;;;;5034809;28;20024;-54
2021/01/08 09:21:37;;;;;;;13.90;6.47;;;6.90;84.00;;;;;;5034337;28;20451;-54
2021/01/08 09:24:03;;;;;;;18.85;7.25;;;6.90;83.80;;;;;;5034312;28;20359;-54
2021/01/08 09:26:30;;;;;;;14.07;5.75;;;7.00;83.90;;;;;;5023173;28;20040;-54
2021/01/08 09:28:57;;;;;;;19.63;8.68;;;7.00;83.80;;;;;;5015583;28;20072;-54
2021/01/08 09:31:38;;;;;;;15.68;7.40;;;7.00;83.80;;;;;;5026567;28;20465;-54
2021/01/08 09:34:04;;;;;;;15.02;5.80;;;7.00;83.70;;;;;;5030191;28;20034;-54
2021/01/08 09:36:30;;;;;;;13.80;6.53;;;7.10;83.60;;;;;;5016053;28;20053;-54
2021/01/08 09:39:01;;;;;;;14.30;6.40;;;7.10;83.60;;;;;;5017918;28;20045;-54
2021/01/08 09:41:26;;;;;;;13.48;4.72;;;7.10;83.50;;;;;;5024413;28;20101;-54
2021/01/08 09:43:58;;;;;;;20.30;7.93;;;7.10;83.60;;;;;;5035592;28;20120;-54
2021/01/08 09:46:23;;;;;;;18.00;6.93;;;7.10;83.50;;;;;;5035484;28;20037;-54
2021/01/08 09:48:49;;;;;;;20.90;9.32;;;7.10;83.50;;;;;;5030999;28;20024;-54
2021/01/08 09:51:15;;;;;;;18.25;6.97;;;7.10;83.50;;;;;;5020483;28;20389;-54
2021/01/08 09:53:40;;;;;;;20.27;7.60;;;7.10;83.40;;;;;;5035537;28;20026;-54
2021/01/08 09:56:16;;;;;;;19.45;8.07;;;7.10;84.20;;;;;;5030987;28;20386;-54
2021/01/08 09:58:43;;;;;;;18.08;7.13;;;7.20;83.40;;;;;;5016219;28;20026;-54
2021/01/08 10:01:12;;;;;;;20.33;7.57;;;7.20;83.40;;;;;;5033658;28;20038;-54
2021/01/08 10:03:38;;;;;;;16.00;7.78;;;7.20;83.40;;;;;;5035106;28;20021;-53
2021/01/08 10:06:14;;;;;;;19.45;8.88;;;7.20;83.30;;;;;;5022867;28;20045;-54
2021/01/08 10:08:39;;;;;;;23.30;8.75;;;7.20;83.30;;;;;;5024079;28;20037;-54
2021/01/08 10:11:06;;;;;;;20.30;9.05;;;7.20;83.30;;;;;;5014822;28;20083;-53
2021/01/08 10:13:32;;;;;;;16.98;6.90;;;7.20;83.40;;;;;;5034889;28;20025;-54
2021/01/08 10:16:09;;;;;;;23.92;8.63;;;7.20;83.40;;;;;;5034710;28;20041;-54
2021/01/08 10:18:37;;;;;;;14.40;6.40;;;7.20;83.30;;;;;;5034455;28;20026;-54
2021/01/08 10:21:08;;;;;;;18.05;6.82;;;7.20;83.40;;;;;;5015878;28;20034;-54
2021/01/08 10:23:39;;;;;;;14.23;7.38;;;7.20;83.30;;;;;;5032750;28;20033;-54
2021/01/08 10:26:14;;;;;;;16.42;7.13;;;7.30;83.40;;;;;;5035110;28;20106;-54
2021/01/08 10:28:56;;;;;;;13.82;6.88;;;7.30;83.30;;;;;;5033436;28;20054;-54
2021/01/08 10:31:23;;;;;;;14.25;6.25;;;7.40;83.60;;;;;;5018990;28;20018;-54
2021/01/08 10:33:50;;;;;;;16.90;5.78;;;7.40;83.80;;;;;;5028041;28;20030;-54
2021/01/08 10:36:16;;;;;;;18.23;7.57;;;7.40;84.60;;;;;;5031307;28;20147;-54
2021/01/08 10:38:43;;;;;;;14.32;6.85;;;7.50;83.70;;;;;;5016345;28;20041;-54
2021/01/08 10:41:09;;;;;;;15.68;7.55;;;7.50;83.60;;;;;;5033199;28;20063;-54
2021/01/08 10:43:34;;;;;;;9.55;4.60;;;7.50;83.80;;;;;;5033861;28;20029;-53
2021/01/08 10:46:05;;;;;;;10.77;5.45;;;7.50;83.70;;;;;;5034347;28;20044;-54
2021/01/08 10:48:31;;;;;;;19.00;5.78;;;7.50;83.70;;;;;;5034376;28;20045;-54
2021/01/08 10:50:58;;;;;;;15.20;5.40;;;7.50;83.70;;;;;;5033237;28;20451;-54
2021/01/08 10:53:24;;;;;;;12.35;6.03;;;7.50;83.50;;;;;;5031307;28;20030;-54
2021/01/08 10:55:50;;;;;;;13.05;5.72;;;7.50;83.50;;;;;;5022517;28;20025;-54
2021/01/08 10:58:16;;;;;;;14.23;6.20;;;7.50;83.60;;;;;;5014498;28;20124;-54
2021/01/08 11:00:46;;;;;;;8.27;4.13;;;7.50;83.60;;;;;;5023308;28;20025;-54
2021/01/08 11:03:12;;;;;;;7.97;4.22;;;7.60;83.70;;;;;;5033309;28;20030;-54
2021/01/08 11:05:39;;;;;;;7.93;4.72;;;7.60;83.80;;;;;;5025407;28;20030;-54
2021/01/08 11:08:06;;;;;;;14.75;7.10;;;7.70;84.10;;;;;;5013855;28;20455;-54
2021/01/08 11:10:32;;;;;;;9.65;4.63;;;7.70;84.10;;;;;;5029800;28;20030;-54
2021/01/08 11:12:58;;;;;;;12.60;6.05;;;7.80;84.00;;;;;;5032928;28;20103;-54
2021/01/08 11:15:24;;;;;;;16.40;6.72;;;7.90;84.00;;;;;;5033920;28;20034;-54
2021/01/08 11:17:49;;;;;;;11.10;4.30;;;8.00;83.90;;;;;;5033610;28;20036;-54
2021/01/08 11:20:15;;;;;;;7.20;3.65;;;8.00;84.10;;;;;;5019162;28;20113;-54
2021/01/08 11:22:41;;;;;;;14.60;5.40;;;8.00;84.00;;;;;;5013518;28;20114;-54
2021/01/08 11:25:07;;;;;;;5.68;3.97;;;8.10;83.80;;;;;;5028054;28;20110;-54
2021/01/08 11:27:33;;;;;;;11.40;4.65;;;8.10;83.90;;;;;;5014118;28;20056;-54
2021/01/08 11:29:59;;;;;;;18.02;5.78;;;8.20;83.80;;;;;;5022058;28;20518;-54
2021/01/08 11:32:24;;;;;;;10.65;4.45;;;8.20;84.00;;;;;;5033509;28;20029;-54
2021/01/08 11:34:50;;;;;;;10.65;4.82;;;8.20;83.90;;;;;;5033330;28;20021;-53
2021/01/08 11:37:16;;;;;;;12.27;5.63;;;8.30;84.10;;;;;;5028486;28;20446;-54
2021/01/08 11:39:42;;;;;;;12.50;3.42;;;8.20;84.30;;;;;;5020417;28;20037;-54
2021/01/08 11:42:07;;;;;;;6.75;2.80;;;8.20;84.80;;;;;;5033591;28;20049;-54
2021/01/08 11:44:33;;;;;;;9.30;4.93;;;8.20;84.70;;;;;;5026718;28;20052;-54
2021/01/08 11:46:59;;;;;;;10.20;4.05;;;8.10;84.60;;;;;;5032971;28;20124;-54
2021/01/08 11:49:24;;;;;;;11.75;4.90;;;8.10;84.70;;;;;;5023837;28;20030;-54
2021/01/08 11:51:50;;;;;;;15.27;5.18;;;8.10;84.50;;;;;;5029176;28;20494;-53
2021/01/08 11:54:15;;;;;;;12.68;4.57;;;8.10;84.40;;;;;;5017743;28;20022;-54
2021/01/08 11:56:41;;;;;;;8.65;4.22;;;8.10;84.40;;;;;;5029284;28;20028;-54
2021/01/08 11:59:07;;;;;;;11.00;4.80;;;8.00;84.20;;;;;;5027791;28;20029;-53
2021/01/08 12:01:32;;;;;;;12.70;5.50;;;8.10;84.30;;;;;;5013408;28;20121;-54
2021/01/08 12:03:59;;;;;;;9.90;3.97;;;8.10;84.40;;;;;;5013678;28;20057;-54
2021/01/08 12:06:30;;;;;;;9.80;4.65;;;8.10;84.50;;;;;;5017898;28;20490;-54
2021/01/08 12:09:00;;;;;;;7.25;4.28;;;8.10;84.40;;;;;;5022792;28;20508;-54
2021/01/08 12:11:26;;;;;;;12.45;5.88;;;8.00;84.30;;;;;;5030311;28;20047;-54
2021/01/08 12:13:52;;;;;;;14.55;7.18;;;8.00;84.10;;;;;;5032996;28;20398;-54
2021/01/08 12:16:31;;;;;;;8.10;3.30;;;8.00;84.00;;;;;;5031782;28;20471;-54
2021/01/08 12:18:57;;;;;;;6.68;3.83;;;8.00;84.20;;;;;;5029679;28;20026;-54
2021/01/08 12:21:23;;;;;;;9.90;5.05;;;8.00;84.20;;;;;;5033356;28;20033;-54
2021/01/08 12:23:52;;;;;;;10.98;4.88;;;8.00;84.20;;;;;;5033074;28;20028;-54
2021/01/08 12:26:18;;;;;;;8.93;3.90;;;8.00;83.90;;;;;;5032116;28;20041;-54
2021/01/08 12:28:49;;;;;;;8.18;4.25;;;8.00;83.90;;;;;;5030392;28;20030;-54
2021/01/08 12:31:21;;;;;;;11.65;4.13;;;8.00;83.90;;;;;;5032473;28;20034;-54
2021/01/08 12:33:47;;;;;;;8.23;3.28;;;8.00;83.90;;;;;;5031466;28;20045;-54
2021/01/08 12:36:12;;;;;;;10.70;4.13;;;8.00;83.80;;;;;;5030298;28;20033;-54
2021/01/08 12:38:38;;;;;;;11.73;4.15;;;8.00;83.90;;;;;;5031103;28;20037;-54
2021/01/08 12:41:04;;;;;;;10.73;3.72;;;8.00;83.90;;;;;;5030873;28;20160;-54
2021/01/08 12:43:30;;;;;;;7.45;3.65;;;7.90;83.80;;;;;;5032864;28;20363;-54
2021/01/08 12:45:56;;;;;;;5.38;2.88;;;7.90;83.80;;;;;;5031504;28;20363;-53
2021/01/08 12:48:21;;;;;;;5.45;2.67;;;7.90;83.80;;;;;;5032721;28;20025;-54
2021/01/08 12:50:47;;;;;;;3.72;2.20;;;7.90;83.80;;;;;;5029504;28;20029;-54
2021/01/08 12:53:12;;;;;;;7.00;2.92;;;7.90;83.90;;;;;;5032920;28;20034;-53